createdAt,value
2022-11-07T00:00:00.863Z,4.50
2022-11-07T00:01:00.913Z,3.40
2022-11-07T00:02:00.956Z,2.90
2022-11-07T00:03:00.933Z,4.50
2022-11-07T00:04:00.827Z,4.70
2022-11-07T00:05:00.858Z,4.10
2022-11-07T00:06:00.812Z,3.30
2022-11-07T00:07:00.902Z,3.00
2022-11-07T00:08:00.785Z,3.90
2022-11-07T00:09:00.773Z,3.00
2022-11-07T00:10:00.783Z,3.50
2022-11-07T00:11:00.750Z,3.20
2022-11-07T00:12:00.763Z,3.10
2022-11-07T00:13:00.760Z,2.80
2022-11-07T00:14:00.762Z,3.00
2022-11-07T00:15:00.714Z,3.60
2022-11-07T00:16:00.723Z,3.00
2022-11-07T00:17:00.700Z,2.50
2022-11-07T00:18:00.678Z,3.30
2022-11-07T00:19:00.678Z,4.60
2022-11-07T00:20:00.687Z,2.50
2022-11-07T00:21:00.647Z,4.20
2022-11-07T00:22:01.636Z,3.40
2022-11-07T00:23:00.647Z,2.80
2022-11-07T00:24:00.624Z,4.00
2022-11-07T00:25:00.643Z,3.40
2022-11-07T00:26:00.612Z,3.40
2022-11-07T00:27:00.648Z,2.50
2022-11-07T00:28:00.688Z,2.50
2022-11-07T00:29:00.575Z,3.50
2022-11-07T00:30:00.590Z,2.80
2022-11-07T00:31:00.573Z,4.50
2022-11-07T00:32:00.597Z,5.40
2022-11-07T00:33:00.677Z,2.50
2022-11-07T00:34:00.536Z,3.20
2022-11-07T00:35:00.533Z,3.80
2022-11-07T00:36:00.557Z,2.60
2022-11-07T00:37:00.496Z,3.20
2022-11-07T00:38:00.488Z,3.30
2022-11-07T00:39:00.484Z,2.90
2022-11-07T00:40:00.472Z,2.70
2022-11-07T00:41:00.526Z,4.00
2022-11-07T00:42:00.447Z,2.80
2022-11-07T00:43:00.450Z,3.40
2022-11-07T00:44:00.423Z,3.20
2022-11-07T00:45:00.426Z,3.30
2022-11-07T00:46:00.434Z,3.30
2022-11-07T00:47:00.413Z,3.60
2022-11-07T00:48:00.391Z,2.40
2022-11-07T00:49:00.386Z,4.50
2022-11-07T00:50:00.376Z,3.00
2022-11-07T00:51:00.368Z,2.90
2022-11-07T00:52:00.403Z,3.60
2022-11-07T00:53:00.336Z,3.10
2022-11-07T00:54:00.337Z,3.70
2022-11-07T00:55:00.316Z,3.00
2022-11-07T00:56:00.315Z,2.70
2022-11-07T00:57:00.314Z,3.60
2022-11-07T00:58:00.287Z,4.90
2022-11-07T00:59:00.270Z,3.10
2022-11-07T01:00:00.267Z,3.70
2022-11-07T01:01:00.259Z,2.80
2022-11-07T01:02:00.458Z,3.30
2022-11-07T01:03:00.316Z,2.80
2022-11-07T01:04:00.226Z,3.30
2022-11-07T01:05:00.220Z,3.40
2022-11-07T01:06:00.339Z,3.80
2022-11-07T01:07:00.213Z,2.70
2022-11-07T01:08:00.181Z,3.50
2022-11-07T01:09:00.175Z,3.40
2022-11-07T01:10:00.173Z,2.60
2022-11-07T01:11:00.172Z,2.80
2022-11-07T01:12:00.141Z,3.10
2022-11-07T01:13:00.143Z,3.00
2022-11-07T01:14:00.238Z,4.20
2022-11-07T01:15:00.262Z,3.80
2022-11-07T01:16:00.132Z,3.80
2022-11-07T01:17:00.100Z,4.00
2022-11-07T01:18:00.087Z,2.60
2022-11-07T01:19:00.091Z,2.80
2022-11-07T01:20:01.109Z,5.70
2022-11-07T01:21:00.055Z,2.90
2022-11-07T01:22:00.056Z,3.60
2022-11-07T01:23:00.047Z,2.90
2022-11-07T01:24:00.048Z,3.30
2022-11-07T01:25:00.037Z,2.90
2022-11-07T01:26:00.010Z,3.80
2022-11-07T01:27:00.001Z,3.10
2022-11-07T01:28:00.063Z,3.20
2022-11-07T01:28:59.992Z,3.40
2022-11-07T01:29:59.982Z,2.90
2022-11-07T01:30:59.976Z,4.00
2022-11-07T01:31:59.960Z,3.50
2022-11-07T01:32:59.980Z,3.40
2022-11-07T01:33:59.968Z,3.60
2022-11-07T01:34:59.931Z,3.00
2022-11-07T01:36:04.889Z,3.50
2022-11-07T01:37:00.947Z,4.40
2022-11-07T01:38:00.045Z,3.30
2022-11-07T01:38:59.892Z,5.60
2022-11-07T01:39:59.873Z,3.20
2022-11-07T01:40:59.932Z,4.20
2022-11-07T01:41:59.874Z,3.10
2022-11-07T01:42:59.918Z,3.10
2022-11-07T01:43:59.850Z,4.50
2022-11-07T01:44:59.816Z,3.90
2022-11-07T01:46:00.812Z,2.70
2022-11-07T01:46:59.811Z,3.10
2022-11-07T01:47:59.793Z,3.80
2022-11-07T01:48:59.806Z,3.30
2022-11-07T01:49:59.799Z,3.70
2022-11-07T01:50:59.790Z,3.00
2022-11-07T01:51:59.765Z,2.80
2022-11-07T01:52:59.753Z,3.50
2022-11-07T01:53:59.743Z,3.50
2022-11-07T01:54:59.755Z,3.90
2022-11-07T01:55:59.727Z,3.80
2022-11-07T01:56:59.718Z,3.40
2022-11-07T01:57:59.691Z,3.30
2022-11-07T01:58:59.703Z,2.80
2022-11-07T01:59:59.708Z,4.50
2022-11-07T02:00:59.712Z,3.00
2022-11-07T02:01:59.706Z,4.10
2022-11-07T02:02:59.779Z,4.10
2022-11-07T02:03:59.635Z,4.30
2022-11-07T02:04:59.625Z,2.90
2022-11-07T02:05:59.744Z,3.00
2022-11-07T02:06:59.609Z,3.80
2022-11-07T02:07:59.620Z,3.40
2022-11-07T02:08:59.632Z,2.60
2022-11-07T02:09:59.589Z,3.60
2022-11-07T02:10:59.574Z,3.60
2022-11-07T02:11:59.595Z,4.10
2022-11-07T02:12:59.565Z,2.80
2022-11-07T02:13:59.539Z,3.20
2022-11-07T02:14:59.528Z,4.40
2022-11-07T02:15:59.533Z,3.90
2022-11-07T02:16:59.570Z,3.70
2022-11-07T02:17:59.508Z,4.50
2022-11-07T02:18:59.488Z,3.20
2022-11-07T02:19:59.478Z,3.40
2022-11-07T02:20:59.474Z,3.20
2022-11-07T02:21:59.510Z,4.60
2022-11-07T02:22:59.459Z,2.90
2022-11-07T02:23:59.444Z,3.30
2022-11-07T02:24:59.424Z,3.40
2022-11-07T02:25:59.447Z,4.20
2022-11-07T02:26:59.419Z,2.90
2022-11-07T02:27:59.426Z,3.00
2022-11-07T02:28:59.390Z,3.50
2022-11-07T02:29:59.386Z,4.30
2022-11-07T02:30:59.420Z,2.80
2022-11-07T02:31:59.366Z,3.50
2022-11-07T02:32:59.355Z,2.40
2022-11-07T02:33:59.341Z,3.70
2022-11-07T02:34:59.342Z,4.00
2022-11-07T02:35:59.380Z,3.40
2022-11-07T02:37:31.194Z,2.90
2022-11-07T02:37:59.287Z,3.00
2022-11-07T02:38:59.285Z,4.00
2022-11-07T02:39:59.285Z,3.20
2022-11-07T02:40:59.264Z,4.60
2022-11-07T02:41:59.275Z,4.60
2022-11-07T02:43:00.320Z,3.40
2022-11-07T02:43:59.262Z,3.10
2022-11-07T02:44:59.224Z,3.90
2022-11-07T02:45:59.251Z,3.60
2022-11-07T02:46:59.215Z,3.40
2022-11-07T02:47:59.201Z,3.40
2022-11-07T02:48:59.204Z,5.00
2022-11-07T02:49:59.188Z,3.20
2022-11-07T02:50:59.225Z,3.10
2022-11-07T02:51:59.162Z,3.90
2022-11-07T02:52:59.167Z,2.80
2022-11-07T02:53:59.136Z,4.20
2022-11-07T02:54:59.157Z,6.30
2022-11-07T02:55:59.126Z,4.00
2022-11-07T02:56:59.117Z,3.40
2022-11-07T02:57:59.097Z,3.50
2022-11-07T02:58:59.092Z,2.80
2022-11-07T02:59:59.097Z,3.80
2022-11-07T03:00:59.065Z,4.30
2022-11-07T03:01:59.203Z,3.80
2022-11-07T03:02:59.235Z,3.90
2022-11-07T03:03:59.096Z,3.20
2022-11-07T03:04:59.028Z,2.80
2022-11-07T03:05:59.059Z,4.60
2022-11-07T03:06:59.014Z,4.00
2022-11-07T03:07:59.006Z,3.10
2022-11-07T03:08:59.012Z,3.20
2022-11-07T03:09:58.973Z,4.00
2022-11-07T03:10:58.971Z,4.40
2022-11-07T03:11:58.963Z,4.10
2022-11-07T03:12:58.949Z,4.30
2022-11-07T03:13:58.961Z,3.90
2022-11-07T03:14:58.937Z,4.20
2022-11-07T03:15:58.953Z,4.10
2022-11-07T03:16:58.909Z,4.00
2022-11-07T03:17:58.890Z,3.90
2022-11-07T03:18:58.885Z,4.50
2022-11-07T03:19:58.925Z,4.00
2022-11-07T03:20:58.882Z,4.30
2022-11-07T03:21:58.856Z,4.50
2022-11-07T03:22:58.856Z,3.60
2022-11-07T03:23:58.842Z,3.30
2022-11-07T03:24:58.903Z,3.80
2022-11-07T03:25:58.817Z,3.90
2022-11-07T03:26:58.808Z,6.00
2022-11-07T03:27:58.806Z,4.70
2022-11-07T03:28:58.806Z,4.50
2022-11-07T03:29:58.783Z,3.60
2022-11-07T03:30:59.784Z,4.20
2022-11-07T03:31:58.759Z,4.50
2022-11-07T03:32:58.756Z,4.50
2022-11-07T03:33:58.744Z,4.90
2022-11-07T03:34:58.735Z,6.40
2022-11-07T03:35:58.739Z,4.00
2022-11-07T03:36:58.731Z,4.80
2022-11-07T03:37:58.699Z,4.50
2022-11-07T03:38:58.690Z,3.20
2022-11-07T03:39:58.693Z,4.80
2022-11-07T03:40:58.756Z,3.50
2022-11-07T03:41:58.661Z,4.00
2022-11-07T03:42:58.661Z,4.30
2022-11-07T03:43:58.657Z,4.10
2022-11-07T03:44:58.668Z,6.30
2022-11-07T03:45:58.647Z,4.80
2022-11-07T03:46:58.609Z,4.10
2022-11-07T03:47:58.610Z,4.70
2022-11-07T03:48:59.604Z,4.80
2022-11-07T03:49:58.591Z,4.20
2022-11-07T03:50:58.584Z,5.50
2022-11-07T03:51:58.585Z,5.70
2022-11-07T03:52:58.576Z,5.60
2022-11-07T03:53:58.545Z,3.50
2022-11-07T03:54:58.563Z,5.30
2022-11-07T03:55:58.536Z,6.00
2022-11-07T03:56:58.570Z,5.10
2022-11-07T03:57:58.531Z,4.60
2022-11-07T03:58:58.514Z,4.60
2022-11-07T03:59:58.496Z,5.80
2022-11-07T04:00:58.480Z,4.60
2022-11-07T04:01:58.624Z,5.80
2022-11-07T04:02:58.640Z,4.30
2022-11-07T04:03:58.447Z,4.70
2022-11-07T04:04:58.438Z,5.50
2022-11-07T04:05:58.419Z,5.70
2022-11-07T04:06:58.423Z,5.40
2022-11-07T04:07:58.416Z,5.20
2022-11-07T04:08:58.411Z,5.30
2022-11-07T04:09:58.406Z,6.70
2022-11-07T04:10:58.452Z,4.40
2022-11-07T04:11:58.398Z,5.00
2022-11-07T04:12:58.372Z,5.90
2022-11-07T04:13:58.354Z,4.70
2022-11-07T04:14:58.355Z,6.00
2022-11-07T04:15:58.334Z,7.10
2022-11-07T04:16:58.384Z,5.50
2022-11-07T04:17:58.318Z,4.20
2022-11-07T04:18:58.311Z,5.60
2022-11-07T04:19:58.300Z,6.40
2022-11-07T04:20:58.282Z,4.80
2022-11-07T04:21:58.268Z,5.10
2022-11-07T04:22:58.267Z,4.90
2022-11-07T04:23:58.255Z,6.50
2022-11-07T04:24:58.240Z,5.40
2022-11-07T04:25:58.234Z,5.40
2022-11-07T04:26:58.234Z,7.50
2022-11-07T04:27:58.243Z,6.00
2022-11-07T04:28:58.199Z,5.20
2022-11-07T04:29:58.200Z,4.60
2022-11-07T04:30:58.186Z,5.60
2022-11-07T04:31:58.226Z,7.10
2022-11-07T04:32:58.159Z,8.10
2022-11-07T04:33:58.178Z,6.50
2022-11-07T04:34:58.150Z,5.50
2022-11-07T04:35:58.129Z,5.30
2022-11-07T04:36:58.121Z,5.90
2022-11-07T04:37:58.127Z,6.00
2022-11-07T04:38:58.113Z,6.30
2022-11-07T04:39:58.098Z,5.70
2022-11-07T04:40:58.103Z,6.10
2022-11-07T04:41:58.072Z,7.90
2022-11-07T04:42:58.067Z,7.40
2022-11-07T04:43:58.048Z,5.70
2022-11-07T04:44:58.114Z,7.70
2022-11-07T04:45:58.047Z,7.60
2022-11-07T04:46:58.022Z,7.90
2022-11-07T04:47:58.007Z,8.00
2022-11-07T04:48:58.000Z,12.00
2022-11-07T04:49:58.092Z,8.40
2022-11-07T04:50:57.977Z,8.50
2022-11-07T04:51:57.962Z,6.80
2022-11-07T04:52:57.972Z,9.30
2022-11-07T04:53:57.999Z,5.70
2022-11-07T04:54:57.943Z,6.30
2022-11-07T04:55:57.936Z,7.00
2022-11-07T04:56:57.931Z,7.50
2022-11-07T04:57:57.924Z,7.60
2022-11-07T04:58:57.969Z,7.60
2022-11-07T04:59:57.904Z,7.10
2022-11-07T05:00:57.880Z,9.60
2022-11-07T05:01:57.985Z,6.00
2022-11-07T05:02:57.912Z,7.10
2022-11-07T05:03:57.890Z,10.80
2022-11-07T05:04:57.839Z,25.00
2022-11-07T05:05:57.825Z,15.20
2022-11-07T05:06:57.821Z,12.60
2022-11-07T05:07:57.848Z,8.40
2022-11-07T05:08:57.794Z,8.40
2022-11-07T05:09:57.822Z,9.00
2022-11-07T05:10:57.777Z,9.30
2022-11-07T05:11:57.760Z,8.60
2022-11-07T05:12:57.756Z,8.00
2022-11-07T05:13:57.761Z,6.70
2022-11-07T05:14:57.764Z,6.20
2022-11-07T05:15:57.736Z,8.40
2022-11-07T05:16:57.722Z,5.80
2022-11-07T05:17:57.720Z,6.90
2022-11-07T05:18:57.710Z,6.80
2022-11-07T05:19:57.712Z,5.50
2022-11-07T05:20:57.690Z,7.90
2022-11-07T05:21:57.725Z,7.20
2022-11-07T05:22:57.685Z,6.60
2022-11-07T05:23:57.658Z,7.00
2022-11-07T05:24:57.657Z,6.30
2022-11-07T05:25:57.647Z,7.70
2022-11-07T05:26:57.658Z,7.30
2022-11-07T05:27:57.617Z,8.00
2022-11-07T05:28:57.624Z,7.50
2022-11-07T05:29:57.591Z,8.70
2022-11-07T05:30:57.610Z,10.40
2022-11-07T05:31:57.594Z,8.30
2022-11-07T05:32:57.563Z,6.70
2022-11-07T05:33:57.575Z,6.70
2022-11-07T05:34:57.586Z,6.80
2022-11-07T05:35:57.543Z,6.70
2022-11-07T05:36:57.543Z,8.10
2022-11-07T05:37:57.531Z,7.00
2022-11-07T05:38:57.526Z,6.40
2022-11-07T05:39:57.551Z,7.70
2022-11-07T05:40:57.493Z,9.00
2022-11-07T05:41:57.479Z,5.60
2022-11-07T05:42:57.492Z,7.80
2022-11-07T05:43:57.456Z,6.00
2022-11-07T05:44:57.440Z,7.00
2022-11-07T05:45:57.497Z,7.00
2022-11-07T05:46:57.456Z,7.40
2022-11-07T05:47:57.470Z,6.40
2022-11-07T05:49:00.903Z,8.40
2022-11-07T05:49:58.396Z,6.70
2022-11-07T05:50:57.398Z,7.70
2022-11-07T05:51:57.386Z,8.10
2022-11-07T05:52:57.418Z,9.30
2022-11-07T05:53:57.382Z,7.30
2022-11-07T05:54:57.382Z,7.80
2022-11-07T05:55:57.359Z,7.40
2022-11-07T05:56:57.338Z,6.40
2022-11-07T05:57:57.315Z,6.40
2022-11-07T05:58:57.348Z,7.90
2022-11-07T05:59:57.311Z,8.10
2022-11-07T06:00:57.299Z,6.20
2022-11-07T06:01:57.358Z,6.80
2022-11-07T06:02:57.516Z,7.90
2022-11-07T06:03:57.293Z,8.10
2022-11-07T06:04:57.240Z,7.60
2022-11-07T06:05:57.269Z,8.60
2022-11-07T06:06:57.227Z,7.40
2022-11-07T06:07:57.222Z,6.20
2022-11-07T06:08:57.266Z,9.30
2022-11-07T06:09:57.275Z,6.60
2022-11-07T06:10:57.192Z,8.70
2022-11-07T06:11:57.182Z,7.70
2022-11-07T06:12:57.177Z,6.50
2022-11-07T06:13:57.192Z,5.80
2022-11-07T06:14:57.167Z,7.60
2022-11-07T06:15:57.163Z,5.70
2022-11-07T06:16:57.139Z,7.10
2022-11-07T06:17:57.130Z,6.50
2022-11-07T06:18:57.126Z,5.30
2022-11-07T06:19:57.124Z,5.50
2022-11-07T06:20:57.086Z,5.90
2022-11-07T06:21:57.106Z,6.20
2022-11-07T06:22:57.078Z,7.20
2022-11-07T06:23:57.075Z,6.40
2022-11-07T06:24:57.059Z,7.00
2022-11-07T06:25:57.068Z,6.80
2022-11-07T06:26:57.079Z,9.40
2022-11-07T06:27:57.031Z,8.40
2022-11-07T06:28:57.016Z,6.10
2022-11-07T06:29:57.007Z,7.70
2022-11-07T06:30:57.005Z,7.30
2022-11-07T06:31:57.005Z,5.90
2022-11-07T06:32:56.989Z,6.10
2022-11-07T06:33:57.039Z,5.80
2022-11-07T06:34:56.956Z,7.50
2022-11-07T06:35:56.956Z,7.10
2022-11-07T06:37:02.827Z,7.50
2022-11-07T06:37:57.959Z,6.70
2022-11-07T06:38:56.933Z,6.70
2022-11-07T06:39:56.916Z,8.10
2022-11-07T06:40:56.941Z,8.70
2022-11-07T06:41:56.885Z,8.60
2022-11-07T06:42:56.873Z,7.80
2022-11-07T06:43:56.912Z,9.30
2022-11-07T06:44:56.885Z,6.90
2022-11-07T06:45:56.869Z,8.30
2022-11-07T06:46:56.946Z,7.40
2022-11-07T06:47:56.829Z,8.10
2022-11-07T06:48:56.842Z,10.10
2022-11-07T06:49:56.816Z,9.10
2022-11-07T06:50:56.821Z,8.30
2022-11-07T06:51:56.791Z,7.00
2022-11-07T06:52:56.778Z,6.80
2022-11-07T06:53:56.798Z,8.50
2022-11-07T06:54:56.779Z,10.30
2022-11-07T06:55:56.773Z,7.40
2022-11-07T06:56:56.739Z,5.80
2022-11-07T06:57:56.735Z,7.70
2022-11-07T06:58:56.725Z,6.40
2022-11-07T06:59:56.715Z,7.00
2022-11-07T07:00:56.856Z,5.60
2022-11-07T07:01:56.770Z,6.70
2022-11-07T07:02:59.081Z,6.40
2022-11-07T07:03:57.713Z,8.60
2022-11-07T07:04:56.680Z,7.60
2022-11-07T07:05:56.698Z,5.90
2022-11-07T07:06:56.642Z,7.50
2022-11-07T07:07:56.662Z,6.40
2022-11-07T07:08:56.655Z,6.20
2022-11-07T07:09:56.624Z,6.60
2022-11-07T07:10:56.624Z,3.90
2022-11-07T07:11:56.586Z,4.40
2022-11-07T07:12:56.651Z,4.50
2022-11-07T07:14:01.169Z,6.10
2022-11-07T07:14:58.581Z,7.10
2022-11-07T07:15:56.594Z,7.20
2022-11-07T07:16:56.552Z,7.40
2022-11-07T07:17:56.632Z,6.60
2022-11-07T07:18:56.575Z,6.10
2022-11-07T07:19:56.567Z,7.90
2022-11-07T07:20:56.506Z,7.60
2022-11-07T07:21:56.505Z,7.80
2022-11-07T07:23:01.452Z,6.20
2022-11-07T07:23:58.196Z,6.00
2022-11-07T07:24:56.478Z,6.10
2022-11-07T07:25:56.467Z,6.90
2022-11-07T07:26:56.454Z,7.50
2022-11-07T07:27:56.452Z,5.90
2022-11-07T07:28:56.436Z,5.90
2022-11-07T07:29:56.489Z,6.80
2022-11-07T07:30:56.443Z,5.80
2022-11-07T07:31:56.453Z,5.40
2022-11-07T07:32:56.390Z,5.30
2022-11-07T07:33:56.391Z,4.20
2022-11-07T07:34:56.436Z,7.40
2022-11-07T07:35:56.343Z,5.30
2022-11-07T07:36:56.411Z,5.40
2022-11-07T07:37:56.344Z,6.40
2022-11-07T07:38:56.330Z,8.30
2022-11-07T07:39:56.343Z,4.40
2022-11-07T07:40:56.331Z,4.60
2022-11-07T07:41:56.306Z,7.70
2022-11-07T07:42:56.370Z,5.90
2022-11-07T07:43:56.284Z,5.10
2022-11-07T07:44:56.272Z,6.80
2022-11-07T07:45:56.366Z,5.70
2022-11-07T07:46:56.251Z,5.70
2022-11-07T07:47:56.280Z,6.90
2022-11-07T07:48:56.229Z,6.40
2022-11-07T07:49:56.256Z,4.90
2022-11-07T07:50:56.215Z,5.10
2022-11-07T07:51:56.216Z,4.20
2022-11-07T07:52:56.187Z,4.80
2022-11-07T07:53:56.201Z,5.10
2022-11-07T07:54:56.208Z,6.20
2022-11-07T07:55:56.178Z,6.70
2022-11-07T07:56:56.147Z,4.70
2022-11-07T07:57:56.166Z,4.60
2022-11-07T07:58:56.135Z,4.80
2022-11-07T07:59:56.129Z,5.50
2022-11-07T08:00:56.153Z,5.20
2022-11-07T08:01:57.304Z,3.60
2022-11-07T08:02:57.110Z,4.00
2022-11-07T08:04:02.077Z,5.90
2022-11-07T08:04:58.102Z,5.90
2022-11-07T08:05:56.077Z,5.50
2022-11-07T08:06:56.066Z,4.40
2022-11-07T08:07:56.057Z,2.90
2022-11-07T08:08:56.052Z,6.10
2022-11-07T08:09:57.318Z,5.90
2022-11-07T08:10:56.051Z,5.80
2022-11-07T08:11:56.018Z,4.20
2022-11-07T08:12:55.992Z,5.00
2022-11-07T08:14:00.841Z,3.70
2022-11-07T08:14:57.976Z,3.90
2022-11-07T08:15:56.029Z,8.30
2022-11-07T08:16:56.024Z,5.00
2022-11-07T08:17:56.067Z,5.20
2022-11-07T08:18:55.955Z,5.10
2022-11-07T08:19:55.981Z,2.60
2022-11-07T08:20:55.911Z,5.50
2022-11-07T08:21:55.907Z,3.80
2022-11-07T08:22:55.892Z,4.50
2022-11-07T08:23:55.983Z,4.90
2022-11-07T08:24:55.885Z,3.60
2022-11-07T08:25:55.917Z,4.30
2022-11-07T08:26:55.866Z,4.40
2022-11-07T08:27:55.911Z,5.00
2022-11-07T08:28:55.867Z,3.30
2022-11-07T08:29:55.829Z,5.00
2022-11-07T08:30:55.839Z,4.90
2022-11-07T08:31:55.816Z,5.20
2022-11-07T08:32:55.802Z,5.30
2022-11-07T08:33:55.859Z,5.70
2022-11-07T08:34:55.818Z,5.60
2022-11-07T08:35:55.774Z,4.30
2022-11-07T08:37:22.690Z,4.30
2022-11-07T08:37:55.747Z,4.60
2022-11-07T08:38:55.793Z,4.90
2022-11-07T08:39:55.739Z,4.00
2022-11-07T08:40:55.725Z,4.40
2022-11-07T08:41:55.728Z,4.60
2022-11-07T08:42:55.758Z,5.90
2022-11-07T08:43:55.726Z,5.90
2022-11-07T08:44:55.718Z,3.70
2022-11-07T08:45:55.677Z,4.10
2022-11-07T08:46:55.698Z,5.60
2022-11-07T08:47:55.701Z,5.70
2022-11-07T08:48:55.638Z,4.20
2022-11-07T08:49:55.678Z,2.40
2022-11-07T08:50:55.632Z,4.90
2022-11-07T08:51:55.627Z,4.00
2022-11-07T08:53:01.187Z,3.80
2022-11-07T08:53:57.600Z,4.40
2022-11-07T08:54:55.593Z,2.10
2022-11-07T08:55:55.582Z,4.80
2022-11-07T08:56:55.570Z,4.10
2022-11-07T08:57:55.591Z,5.50
2022-11-07T08:58:55.591Z,4.90
2022-11-07T08:59:55.645Z,6.00
2022-11-07T09:00:55.589Z,5.90
2022-11-07T09:02:39.108Z,3.00
2022-11-07T09:03:30.812Z,5.10
2022-11-07T09:03:58.572Z,5.20
2022-11-07T09:04:56.495Z,5.00
2022-11-07T09:05:55.567Z,8.30
2022-11-07T09:06:55.529Z,5.50
2022-11-07T09:07:55.476Z,4.50
2022-11-07T09:08:55.471Z,7.70
2022-11-07T09:09:55.440Z,6.50
2022-11-07T09:10:55.472Z,6.40
2022-11-07T09:11:55.471Z,5.50
2022-11-07T09:12:55.423Z,3.30
2022-11-07T09:13:55.441Z,4.90
2022-11-07T09:14:55.395Z,6.00
2022-11-07T09:15:55.392Z,4.10
2022-11-07T09:16:55.385Z,5.40
2022-11-07T09:17:55.356Z,4.90
2022-11-07T09:18:55.366Z,6.80
2022-11-07T09:19:55.351Z,5.60
2022-11-07T09:20:55.352Z,6.90
2022-11-07T09:21:55.351Z,6.50
2022-11-07T09:22:55.339Z,5.00
2022-11-07T09:23:55.329Z,5.40
2022-11-07T09:24:55.301Z,3.80
2022-11-07T09:25:55.278Z,5.80
2022-11-07T09:26:55.283Z,4.60
2022-11-07T09:27:55.291Z,4.40
2022-11-07T09:29:00.828Z,4.80
2022-11-07T09:29:57.248Z,4.30
2022-11-07T09:30:55.291Z,7.20
2022-11-07T09:31:55.267Z,4.90
2022-11-07T09:32:55.229Z,3.90
2022-11-07T09:33:55.211Z,5.80
2022-11-07T09:34:58.318Z,6.40
2022-11-07T09:35:56.234Z,4.40
2022-11-07T09:36:55.205Z,4.90
2022-11-07T09:37:55.248Z,4.70
2022-11-07T09:38:55.290Z,4.50
2022-11-07T09:39:55.162Z,4.50
2022-11-07T09:40:55.144Z,6.60
2022-11-07T09:41:55.150Z,6.00
2022-11-07T09:42:55.155Z,8.20
2022-11-07T09:43:55.104Z,5.20
2022-11-07T09:44:55.117Z,5.10
2022-11-07T09:45:55.101Z,4.90
2022-11-07T09:46:55.084Z,3.10
2022-11-07T09:47:55.096Z,8.40
2022-11-07T09:48:55.097Z,7.30
2022-11-07T09:49:55.057Z,5.40
2022-11-07T09:50:55.045Z,5.30
2022-11-07T09:51:55.028Z,8.10
2022-11-07T09:52:55.028Z,3.80
2022-11-07T09:53:55.058Z,5.30
2022-11-07T09:54:55.007Z,5.70
2022-11-07T09:55:55.007Z,4.50
2022-11-07T09:56:55.030Z,6.20
2022-11-07T09:57:54.989Z,4.00
2022-11-07T09:58:54.996Z,6.70
2022-11-07T09:59:54.975Z,5.90
2022-11-07T10:00:54.968Z,4.80
2022-11-07T10:01:55.005Z,5.30
2022-11-07T10:02:54.922Z,3.90
2022-11-07T10:04:25.389Z,4.90
2022-11-07T10:04:56.900Z,6.30
2022-11-07T10:05:54.896Z,5.10
2022-11-07T10:06:54.917Z,7.30
2022-11-07T10:07:54.880Z,6.00
2022-11-07T10:08:54.889Z,6.40
2022-11-07T10:09:54.857Z,9.80
2022-11-07T10:10:54.847Z,11.30
2022-11-07T10:11:54.874Z,5.30
2022-11-07T10:12:54.822Z,7.20
2022-11-07T10:13:54.805Z,7.70
2022-11-07T10:14:54.809Z,6.80
2022-11-07T10:15:54.859Z,3.30
2022-11-07T10:16:54.787Z,5.90
2022-11-07T10:17:54.793Z,5.60
2022-11-07T10:18:54.822Z,7.00
2022-11-07T10:19:54.754Z,5.00
2022-11-07T10:21:10.157Z,4.70
2022-11-07T10:21:55.912Z,6.60
2022-11-07T10:22:54.741Z,5.40
2022-11-07T10:23:54.714Z,6.80
2022-11-07T10:24:54.704Z,4.50
2022-11-07T10:25:54.713Z,6.60
2022-11-07T10:26:54.704Z,6.10
2022-11-07T10:27:54.679Z,2.00
2022-11-07T10:28:54.671Z,4.80
2022-11-07T10:29:54.702Z,6.70
2022-11-07T10:30:54.645Z,5.60
2022-11-07T10:31:54.645Z,5.10
2022-11-07T10:32:54.629Z,8.00
2022-11-07T10:33:54.630Z,5.50
2022-11-07T10:34:54.961Z,5.20
2022-11-07T10:35:55.592Z,4.80
2022-11-07T10:36:54.608Z,5.40
2022-11-07T10:37:54.606Z,6.70
2022-11-07T10:38:54.600Z,9.10
2022-11-07T10:39:54.586Z,4.80
2022-11-07T10:40:54.549Z,8.60
2022-11-07T10:41:54.546Z,5.80
2022-11-07T10:42:54.568Z,8.40
2022-11-07T10:43:54.527Z,5.40
2022-11-07T10:44:54.510Z,6.70
2022-11-07T10:45:54.513Z,4.50
2022-11-07T10:46:54.877Z,5.00
2022-11-07T10:47:54.502Z,6.60
2022-11-07T10:48:54.541Z,6.50
2022-11-07T10:49:54.484Z,6.00
2022-11-07T10:50:54.470Z,8.70
2022-11-07T10:51:54.449Z,8.30
2022-11-07T10:52:54.447Z,6.40
2022-11-07T10:53:54.455Z,4.50
2022-11-07T10:54:54.431Z,6.20
2022-11-07T10:55:54.408Z,10.80
2022-11-07T10:56:54.418Z,4.90
2022-11-07T10:57:54.437Z,5.60
2022-11-07T10:58:54.385Z,6.30
2022-11-07T10:59:54.426Z,5.30
2022-11-07T11:00:54.383Z,3.70
2022-11-07T11:01:54.410Z,6.30
2022-11-07T11:02:54.377Z,6.00
2022-11-07T11:03:54.334Z,5.50
2022-11-07T11:04:54.469Z,5.50
2022-11-07T11:05:54.314Z,6.40
2022-11-07T11:06:54.302Z,6.50
2022-11-07T11:07:54.304Z,4.30
2022-11-07T11:08:54.280Z,5.20
2022-11-07T11:09:54.270Z,3.70
2022-11-07T11:10:54.282Z,12.30
2022-11-07T11:11:54.346Z,4.40
2022-11-07T11:12:54.252Z,4.80
2022-11-07T11:13:54.233Z,5.30
2022-11-07T11:14:54.263Z,4.00
2022-11-07T11:15:54.207Z,3.60
2022-11-07T11:16:54.289Z,4.80
2022-11-07T11:17:54.197Z,6.60
2022-11-07T11:18:55.189Z,3.90
2022-11-07T11:19:54.231Z,4.90
2022-11-07T11:20:54.167Z,4.50
2022-11-07T11:21:54.184Z,4.80
2022-11-07T11:22:54.141Z,6.00
2022-11-07T11:23:54.132Z,4.00
2022-11-07T11:24:54.155Z,3.20
2022-11-07T11:25:54.121Z,3.20
2022-11-07T11:26:54.123Z,4.00
2022-11-07T11:27:54.110Z,4.70
2022-11-07T11:28:54.105Z,3.90
2022-11-07T11:29:54.075Z,3.10
2022-11-07T11:30:54.119Z,5.90
2022-11-07T11:31:54.063Z,5.40
2022-11-07T11:32:54.102Z,5.00
2022-11-07T11:33:54.040Z,3.80
2022-11-07T11:34:54.104Z,8.60
2022-11-07T11:35:54.037Z,6.50
2022-11-07T11:36:54.027Z,6.00
2022-11-07T11:37:54.021Z,6.00
2022-11-07T11:38:54.033Z,3.60
2022-11-07T11:39:54.000Z,5.60
2022-11-07T11:41:01.502Z,4.70
2022-11-07T11:41:55.963Z,8.50
2022-11-07T11:42:53.957Z,3.00
2022-11-07T11:43:53.990Z,7.60
2022-11-07T11:44:54.056Z,7.50
2022-11-07T11:45:53.997Z,7.10
2022-11-07T11:46:53.919Z,6.90
2022-11-07T11:47:53.912Z,7.80
2022-11-07T11:48:53.913Z,7.90
2022-11-07T11:49:53.899Z,4.70
2022-11-07T11:50:53.874Z,4.70
2022-11-07T11:51:53.908Z,6.50
2022-11-07T11:52:53.856Z,6.90
2022-11-07T11:53:53.871Z,5.30
2022-11-07T11:54:53.823Z,6.30
2022-11-07T11:55:53.833Z,6.80
2022-11-07T11:56:53.842Z,5.60
2022-11-07T11:57:53.817Z,6.00
2022-11-07T11:58:53.793Z,7.60
2022-11-07T11:59:53.795Z,4.20
2022-11-07T12:00:53.819Z,5.90
2022-11-07T12:01:53.863Z,5.50
2022-11-07T12:02:53.754Z,5.20
2022-11-07T12:03:53.757Z,5.40
2022-11-07T12:04:53.735Z,9.10
2022-11-07T12:05:53.783Z,7.90
2022-11-07T12:06:53.715Z,6.90
2022-11-07T12:07:53.720Z,7.00
2022-11-07T12:08:53.734Z,7.00
2022-11-07T12:09:54.720Z,4.30
2022-11-07T12:10:53.682Z,5.80
2022-11-07T12:11:53.742Z,6.80
2022-11-07T12:12:53.675Z,6.70
2022-11-07T12:13:53.647Z,8.10
2022-11-07T12:14:57.603Z,4.30
2022-11-07T12:15:53.690Z,4.60
2022-11-07T12:16:53.614Z,3.80
2022-11-07T12:17:53.618Z,6.90
2022-11-07T12:18:53.602Z,3.70
2022-11-07T12:19:53.581Z,5.60
2022-11-07T12:20:53.691Z,5.00
2022-11-07T12:21:53.596Z,4.50
2022-11-07T12:22:53.552Z,5.50
2022-11-07T12:23:53.583Z,4.00
2022-11-07T12:24:53.539Z,5.80
2022-11-07T12:25:53.530Z,6.30
2022-11-07T12:26:56.366Z,6.20
2022-11-07T12:27:53.532Z,4.30
2022-11-07T12:28:53.599Z,5.50
2022-11-07T12:29:53.490Z,6.10
2022-11-07T12:30:53.524Z,3.90
2022-11-07T12:31:53.501Z,5.10
2022-11-07T12:32:53.481Z,6.20
2022-11-07T12:33:53.463Z,5.90
2022-11-07T12:34:53.446Z,5.70
2022-11-07T12:35:53.455Z,4.40
2022-11-07T12:36:53.437Z,6.00
2022-11-07T12:37:53.438Z,7.00
2022-11-07T12:38:53.418Z,5.50
2022-11-07T12:39:53.395Z,5.80
2022-11-07T12:40:53.389Z,3.60
2022-11-07T12:41:53.365Z,5.50
2022-11-07T12:42:57.304Z,4.00
2022-11-07T12:43:54.374Z,4.90
2022-11-07T12:44:53.378Z,7.40
2022-11-07T12:45:53.335Z,5.10
2022-11-07T12:46:53.373Z,5.70
2022-11-07T12:47:53.318Z,3.50
2022-11-07T12:48:53.324Z,4.50
2022-11-07T12:49:53.289Z,3.80
2022-11-07T12:50:53.274Z,4.80
2022-11-07T12:51:53.267Z,3.30
2022-11-07T12:53:14.548Z,2.60
2022-11-07T12:53:53.405Z,3.40
2022-11-07T12:54:53.237Z,4.70
2022-11-07T12:55:53.226Z,7.50
2022-11-07T12:56:53.224Z,6.30
2022-11-07T12:57:53.225Z,5.60
2022-11-07T12:58:53.269Z,3.50
2022-11-07T12:59:53.203Z,5.00
2022-11-07T13:00:53.243Z,6.10
2022-11-07T13:01:53.259Z,3.20
2022-11-07T13:02:53.146Z,4.90
2022-11-07T13:03:53.190Z,5.30
2022-11-07T13:04:53.144Z,2.40
2022-11-07T13:05:53.205Z,5.00
2022-11-07T13:06:53.114Z,3.30
2022-11-07T13:07:53.130Z,3.50
2022-11-07T13:08:53.137Z,5.20
2022-11-07T13:09:53.094Z,2.10
2022-11-07T13:10:53.075Z,4.70
2022-11-07T13:11:53.066Z,4.50
2022-11-07T13:12:53.063Z,4.60
2022-11-07T13:13:53.060Z,3.10
2022-11-07T13:14:53.046Z,4.10
2022-11-07T13:16:15.979Z,3.30
2022-11-07T13:16:55.035Z,4.10
2022-11-07T13:17:53.018Z,3.20